Time;durP1;ratioP1;P1;durP2;ratioP2;P2;SDS_P1;SDS_P2;PMS_P1;PMS_P2;Temp;Humidity;BMP_temperature;BMP_pressure;BME280_temperature;BME280_humidity;BME280_pressure;Samples;Min_cycle;Max_cycle;Signal;HPM_P1;HPM_P2
2022/05/22 00:01:27;;;;;;;3.83;2.10;;;;;;;;;;4973766;28;20211;-38
2022/05/22 00:03:54;;;;;;;2.60;1.80;;;;;;;;;;4968160;28;20229;-40
2022/05/22 00:06:23;;;;;;;2.07;1.70;;;;;;;;;;4969102;28;20219;-35
2022/05/22 00:08:50;;;;;;;1.83;1.50;;;;;;;;;;4955116;28;20209;-34
2022/05/22 00:13:53;;;;;;;2.30;2.00;;;;;;;;;;4978506;23;20241;-31
2022/05/22 00:16:40;;;;;;;1.60;1.50;;;;;;;;;;4981477;28;20217;-29
2022/05/22 00:19:09;;;;;;;1.60;1.33;;;;;;;;;;4973561;28;20196;-33
2022/05/22 00:21:38;;;;;;;1.50;1.40;;;;;;;;;;4984660;28;20553;-32
2022/05/22 00:24:06;;;;;;;2.00;1.80;;;;;;;;;;4977227;28;20225;-30
2022/05/22 00:26:33;;;;;;;2.77;1.90;;;;;;;;;;4986072;28;20216;-31
2022/05/22 00:29:01;;;;;;;1.90;1.67;;;;;;;;;;4991625;28;20208;-33
2022/05/22 00:31:28;;;;;;;1.70;1.60;;;;;;;;;;4975958;28;20201;-30
2022/05/22 00:33:55;;;;;;;1.60;1.37;;;;;;;;;;4972521;28;20201;-32
2022/05/22 00:36:23;;;;;;;4.23;1.70;;;;;;;;;;4990924;28;20219;-32
2022/05/22 00:38:51;;;;;;;3.87;1.50;;;;;;;;;;4991168;28;20204;-32
2022/05/22 00:41:19;;;;;;;1.63;1.50;;;;;;;;;;4992224;28;20672;-33
2022/05/22 00:43:47;;;;;;;2.00;1.80;;;;;;;;;;4975114;28;20292;-31
2022/05/22 00:46:15;;;;;;;6.23;1.50;;;;;;;;;;4992428;28;20228;-30
2022/05/22 00:48:44;;;;;;;2.03;1.23;;;;;;;;;;4980305;28;20204;-31
2022/05/22 00:51:12;;;;;;;2.60;1.87;;;;;;;;;;4985644;28;20204;-29
2022/05/22 00:53:50;;;;;;;3.73;1.67;;;;;;;;;;4992129;28;20207;-31
2022/05/22 00:56:21;;;;;;;1.53;1.43;;;;;;;;;;4979850;28;20690;-34
2022/05/22 00:58:49;;;;;;;5.27;1.67;;;;;;;;;;4974216;28;20204;-34
2022/05/22 01:01:16;;;;;;;1.67;1.53;;;;;;;;;;4981439;28;20658;-29
2022/05/22 01:03:44;;;;;;;2.30;2.10;;;;;;;;;;4981751;28;20235;-31
2022/05/22 01:06:12;;;;;;;2.73;1.70;;;;;;;;;;4986147;28;20478;-30
2022/05/22 01:08:40;;;;;;;2.27;1.80;;;;;;;;;;4972487;28;20710;-32
2022/05/22 01:11:09;;;;;;;2.03;1.83;;;;;;;;;;4981310;28;20214;-34
2022/05/22 01:13:39;;;;;;;3.17;1.63;;;;;;;;;;4983487;28;20207;-35
2022/05/22 01:16:07;;;;;;;1.60;1.50;;;;;;;;;;4972231;28;20220;-32
2022/05/22 01:18:41;;;;;;;1.97;1.33;;;;;;;;;;4981199;28;20493;-31
2022/05/22 01:21:11;;;;;;;1.60;1.20;;;;;;;;;;4972388;28;20201;-32
2022/05/22 01:23:40;;;;;;;1.50;1.40;;;;;;;;;;4971716;28;20621;-33
2022/05/22 01:26:07;;;;;;;2.20;1.33;;;;;;;;;;4982405;28;20220;-31
2022/05/22 01:28:34;;;;;;;1.60;1.50;;;;;;;;;;4991042;28;20315;-29
2022/05/22 01:31:01;;;;;;;3.40;1.80;;;;;;;;;;4979572;28;20226;-32
2022/05/22 01:33:29;;;;;;;4.23;1.53;;;;;;;;;;4969898;28;20644;-33
2022/05/22 01:35:56;;;;;;;1.50;1.40;;;;;;;;;;4985715;28;20226;-34
2022/05/22 01:38:23;;;;;;;1.20;1.20;;;;;;;;;;4974329;28;20208;-30
2022/05/22 01:40:51;;;;;;;3.33;1.67;;;;;;;;;;4986957;28;20223;-29
2022/05/22 01:43:19;;;;;;;2.30;1.70;;;;;;;;;;4987451;28;20216;-32
2022/05/22 01:45:46;;;;;;;1.87;1.27;;;;;;;;;;4988882;28;20239;-32
2022/05/22 01:48:13;;;;;;;1.97;1.77;;;;;;;;;;4983607;28;20267;-33
2022/05/22 01:50:41;;;;;;;4.63;1.80;;;;;;;;;;4984252;28;20692;-30
2022/05/22 01:53:08;;;;;;;2.27;2.07;;;;;;;;;;4983131;28;20204;-32
2022/05/22 01:55:35;;;;;;;2.47;1.93;;;;;;;;;;4988047;28;20232;-29
2022/05/22 01:58:06;;;;;;;1.27;1.27;;;;;;;;;;4982856;28;20223;-30
2022/05/22 02:00:34;;;;;;;1.80;1.37;;;;;;;;;;4990344;28;20207;-30
2022/05/22 02:03:01;;;;;;;1.53;1.40;;;;;;;;;;4983437;28;20678;-31
2022/05/22 02:05:28;;;;;;;2.90;1.60;;;;;;;;;;4975930;28;20746;-30
2022/05/22 02:10:41;;;;;;;1.57;1.47;;;;;;;;;;4987770;28;20215;-29
2022/05/22 02:13:10;;;;;;;1.67;1.57;;;;;;;;;;4983188;28;20510;-29
2022/05/22 02:15:37;;;;;;;3.03;1.80;;;;;;;;;;4980553;28;20224;-29
2022/05/22 02:18:04;;;;;;;3.07;1.60;;;;;;;;;;4983334;28;20204;-30
2022/05/22 02:20:31;;;;;;;2.27;1.77;;;;;;;;;;4983779;28;20214;-31
2022/05/22 02:22:59;;;;;;;2.27;1.70;;;;;;;;;;4988568;28;20224;-31
2022/05/22 02:25:27;;;;;;;1.97;1.77;;;;;;;;;;4985351;28;20207;-32
2022/05/22 02:27:55;;;;;;;2.43;1.80;;;;;;;;;;4983952;28;20213;-31
2022/05/22 02:30:25;;;;;;;2.17;1.80;;;;;;;;;;4983260;28;20199;-31
2022/05/22 02:32:52;;;;;;;2.67;2.13;;;;;;;;;;4986199;28;20558;-33
2022/05/22 02:35:19;;;;;;;4.80;2.07;;;;;;;;;;4982856;28;20215;-32
2022/05/22 02:37:47;;;;;;;1.67;1.53;;;;;;;;;;4990853;28;20212;-31
2022/05/22 02:40:15;;;;;;;1.83;1.70;;;;;;;;;;4989883;28;20227;-29
2022/05/22 02:42:42;;;;;;;2.37;1.70;;;;;;;;;;4981583;28;20213;-33
2022/05/22 02:45:10;;;;;;;1.43;1.43;;;;;;;;;;4988093;28;20207;-34
2022/05/22 02:47:39;;;;;;;1.53;1.43;;;;;;;;;;4985661;28;20211;-31
2022/05/22 02:50:07;;;;;;;1.37;1.27;;;;;;;;;;4984803;28;20658;-32
2022/05/22 02:52:34;;;;;;;3.33;1.60;;;;;;;;;;4987199;28;20278;-32
2022/05/22 02:55:01;;;;;;;1.50;1.40;;;;;;;;;;4990437;28;20298;-31
2022/05/22 02:57:29;;;;;;;3.07;1.97;;;;;;;;;;4986261;28;20228;-27
2022/05/22 02:59:56;;;;;;;1.73;1.63;;;;;;;;;;4988334;28;20215;-33
2022/05/22 03:02:23;;;;;;;4.40;1.67;;;;;;;;;;4984880;28;20414;-31
2022/05/22 03:04:52;;;;;;;1.67;1.57;;;;;;;;;;4983485;28;20351;-32
2022/05/22 03:07:20;;;;;;;2.03;1.90;;;;;;;;;;4988156;28;20228;-30
2022/05/22 03:09:48;;;;;;;1.67;1.57;;;;;;;;;;4990270;28;20220;-28
2022/05/22 03:12:16;;;;;;;1.90;1.80;;;;;;;;;;4982401;28;20213;-31
2022/05/22 03:14:44;;;;;;;1.80;1.67;;;;;;;;;;4979797;28;20232;-31
2022/05/22 03:17:11;;;;;;;2.03;1.83;;;;;;;;;;4983576;28;20232;-30
2022/05/22 03:19:38;;;;;;;3.40;2.43;;;;;;;;;;4983713;28;20204;-32
2022/05/22 03:22:07;;;;;;;5.60;3.40;;;;;;;;;;4989404;28;20215;-32
2022/05/22 03:24:35;;;;;;;2.30;2.10;;;;;;;;;;4989339;28;20243;-29
2022/05/22 03:27:02;;;;;;;1.73;1.43;;;;;;;;;;4982278;28;20219;-35
2022/05/22 03:29:30;;;;;;;2.20;1.60;;;;;;;;;;4985070;28;20200;-32
2022/05/22 03:31:57;;;;;;;2.33;1.80;;;;;;;;;;4987485;28;20513;-28
2022/05/22 03:34:24;;;;;;;1.70;1.60;;;;;;;;;;4977959;28;20553;-32
2022/05/22 03:36:51;;;;;;;3.70;2.13;;;;;;;;;;4986005;28;20232;-32
2022/05/22 03:39:19;;;;;;;2.50;1.90;;;;;;;;;;4987876;28;20219;-34
2022/05/22 03:41:47;;;;;;;1.83;1.60;;;;;;;;;;4983291;28;20221;-29
2022/05/22 03:44:14;;;;;;;1.90;1.80;;;;;;;;;;4983527;28;20239;-30
2022/05/22 03:46:41;;;;;;;2.57;2.30;;;;;;;;;;4991631;28;20537;-30
2022/05/22 03:49:08;;;;;;;2.60;1.50;;;;;;;;;;4975667;28;20560;-31
2022/05/22 03:51:36;;;;;;;2.73;1.83;;;;;;;;;;4974719;28;20197;-31
2022/05/22 03:54:03;;;;;;;3.20;1.67;;;;;;;;;;4989453;28;20218;-30
2022/05/22 03:56:31;;;;;;;1.80;1.70;;;;;;;;;;4989228;28;20228;-33
2022/05/22 03:58:59;;;;;;;1.93;1.50;;;;;;;;;;4983757;28;20215;-30
2022/05/22 04:01:26;;;;;;;3.50;1.47;;;;;;;;;;4992768;28;20219;-29
2022/05/22 04:03:56;;;;;;;2.30;1.30;;;;;;;;;;4985821;28;20749;-27
2022/05/22 04:06:23;;;;;;;2.03;1.83;;;;;;;;;;4975749;28;20757;-31
2022/05/22 04:08:50;;;;;;;2.57;1.90;;;;;;;;;;4995041;28;20204;-29
2022/05/22 04:11:18;;;;;;;2.27;1.40;;;;;;;;;;4995999;28;20236;-32
2022/05/22 04:13:47;;;;;;;1.63;1.53;;;;;;;;;;4981022;28;20675;-32
2022/05/22 04:16:15;;;;;;;2.00;1.60;;;;;;;;;;4980092;28;20600;-32
2022/05/22 04:18:42;;;;;;;1.93;1.60;;;;;;;;;;4987343;28;20210;-31
2022/05/22 04:21:10;;;;;;;1.77;1.60;;;;;;;;;;4982479;28;20204;-29
2022/05/22 04:26:22;;;;;;;2.00;1.80;;;;;;;;;;4975851;28;20219;-33
2022/05/22 04:29:09;;;;;;;1.60;1.43;;;;;;;;;;4984109;28;20212;-31
2022/05/22 04:31:36;;;;;;;2.20;1.60;;;;;;;;;;4984552;28;20247;-32
2022/05/22 04:34:03;;;;;;;1.70;1.60;;;;;;;;;;4980519;28;20223;-32
2022/05/22 04:36:31;;;;;;;3.00;1.80;;;;;;;;;;4986978;28;20220;-31
2022/05/22 04:38:58;;;;;;;2.67;1.70;;;;;;;;;;4995016;28;20208;-31
2022/05/22 04:41:25;;;;;;;2.07;1.80;;;;;;;;;;4989571;28;20204;-31
2022/05/22 04:43:52;;;;;;;1.77;1.50;;;;;;;;;;4985668;28;20242;-28
2022/05/22 04:46:21;;;;;;;2.13;1.40;;;;;;;;;;4994999;28;20223;-27
2022/05/22 04:48:50;;;;;;;1.93;1.57;;;;;;;;;;4978902;28;20579;-29
2022/05/22 04:51:18;;;;;;;1.47;1.37;;;;;;;;;;4988658;28;20362;-32
2022/05/22 04:53:45;;;;;;;1.60;1.50;;;;;;;;;;4995324;28;20697;-31
2022/05/22 04:56:12;;;;;;;2.00;1.57;;;;;;;;;;4991029;28;20224;-27
2022/05/22 04:58:39;;;;;;;1.43;1.37;;;;;;;;;;4990125;28;20208;-33
2022/05/22 05:01:07;;;;;;;1.50;1.40;;;;;;;;;;4989121;28;20291;-33
2022/05/22 05:03:37;;;;;;;1.83;1.63;;;;;;;;;;4979903;28;20220;-31
2022/05/22 05:06:04;;;;;;;1.57;1.47;;;;;;;;;;4979924;28;20224;-32
2022/05/22 05:08:32;;;;;;;2.80;1.70;;;;;;;;;;4974729;28;20211;-28
2022/05/22 05:11:00;;;;;;;2.20;1.67;;;;;;;;;;4975696;28;20219;-27
2022/05/22 05:13:27;;;;;;;2.03;1.53;;;;;;;;;;4984280;28;20212;-31
2022/05/22 05:16:01;;;;;;;1.60;1.50;;;;;;;;;;4983241;28;20217;-29
2022/05/22 05:18:29;;;;;;;1.60;1.50;;;;;;;;;;4975311;28;20204;-31
2022/05/22 05:20:59;;;;;;;2.33;1.57;;;;;;;;;;4978013;28;20211;-27
2022/05/22 05:23:26;;;;;;;2.73;1.77;;;;;;;;;;4994465;28;20188;-29
2022/05/22 05:25:54;;;;;;;2.93;1.70;;;;;;;;;;4982991;28;20227;-28
2022/05/22 05:28:21;;;;;;;1.90;1.80;;;;;;;;;;4979723;28;20204;-31
2022/05/22 05:30:48;;;;;;;1.70;1.60;;;;;;;;;;4993373;28;20200;-31
2022/05/22 05:33:15;;;;;;;3.07;1.97;;;;;;;;;;4984877;28;20205;-31
2022/05/22 05:35:53;;;;;;;3.77;1.80;;;;;;;;;;4985471;28;20228;-33
2022/05/22 05:38:21;;;;;;;2.27;1.80;;;;;;;;;;4979993;28;20288;-37
2022/05/22 05:40:49;;;;;;;3.03;1.90;;;;;;;;;;4975423;28;20215;-29
2022/05/22 05:43:16;;;;;;;5.20;1.90;;;;;;;;;;4983790;28;20220;-32
2022/05/22 05:45:44;;;;;;;2.60;1.70;;;;;;;;;;4991855;28;20293;-29
2022/05/22 05:48:11;;;;;;;1.73;1.63;;;;;;;;;;4982190;28;20212;-31
2022/05/22 05:50:38;;;;;;;2.27;1.80;;;;;;;;;;4983249;28;20204;-31
2022/05/22 05:53:05;;;;;;;1.73;1.63;;;;;;;;;;4972218;28;20208;-28
2022/05/22 05:55:34;;;;;;;2.20;2.00;;;;;;;;;;4971090;28;20221;-30
2022/05/22 05:58:03;;;;;;;2.40;1.90;;;;;;;;;;4983985;28;20215;-30
2022/05/22 06:00:30;;;;;;;4.60;1.90;;;;;;;;;;4984232;28;20234;-31
2022/05/22 06:02:58;;;;;;;1.83;1.57;;;;;;;;;;4991637;28;20204;-32
2022/05/22 06:05:25;;;;;;;2.70;1.60;;;;;;;;;;4978982;28;20317;-30
2022/05/22 06:07:52;;;;;;;3.07;1.70;;;;;;;;;;4985819;28;20205;-35
2022/05/22 06:10:21;;;;;;;2.10;1.87;;;;;;;;;;4994020;28;20237;-32
2022/05/22 06:12:49;;;;;;;4.77;2.07;;;;;;;;;;5070720;23;20245;-31
2022/05/22 06:15:17;;;;;;;2.40;2.10;;;;;;;;;;4960986;28;20559;-32
2022/05/22 06:17:46;;;;;;;1.90;1.80;;;;;;;;;;4957355;28;20215;-31
2022/05/22 06:20:14;;;;;;;3.43;1.90;;;;;;;;;;4953252;28;20210;-33
2022/05/22 06:22:44;;;;;;;2.43;1.73;;;;;;;;;;4952885;28;20551;-31
2022/05/22 06:25:12;;;;;;;2.00;1.80;;;;;;;;;;4952161;28;20274;-34
2022/05/22 06:27:40;;;;;;;1.93;1.60;;;;;;;;;;4956233;28;20297;-31
2022/05/22 06:30:10;;;;;;;1.90;1.80;;;;;;;;;;4956897;28;20218;-31
2022/05/22 06:32:39;;;;;;;1.73;1.43;;;;;;;;;;4954973;28;20228;-34
2022/05/22 06:35:07;;;;;;;1.70;1.60;;;;;;;;;;4952361;28;20262;-31
2022/05/22 06:37:34;;;;;;;1.70;1.60;;;;;;;;;;4968588;28;20431;-32
2022/05/22 06:40:01;;;;;;;1.70;1.60;;;;;;;;;;4972260;28;20208;-34
2022/05/22 06:42:29;;;;;;;4.53;2.00;;;;;;;;;;4965550;28;20196;-31
2022/05/22 06:44:58;;;;;;;2.07;1.80;;;;;;;;;;4960064;28;20226;-34
2022/05/22 06:47:27;;;;;;;2.33;1.50;;;;;;;;;;4965521;28;20233;-32
2022/05/22 06:49:55;;;;;;;3.20;2.13;;;;;;;;;;4957062;28;20205;-32
2022/05/22 06:52:22;;;;;;;2.67;1.75;;;;;;;;;;4952661;28;20297;-31
2022/05/22 06:54:49;;;;;;;3.38;1.60;;;;;;;;;;4952870;28;20429;-31
2022/05/22 06:57:18;;;;;;;1.40;1.30;;;;;;;;;;4960575;28;20690;-34
2022/05/22 06:59:45;;;;;;;2.95;1.45;;;;;;;;;;4960128;28;20550;-33
2022/05/22 07:02:13;;;;;;;2.92;1.58;;;;;;;;;;4952562;28;20227;-33
2022/05/22 07:04:41;;;;;;;2.25;1.30;;;;;;;;;;4966320;28;20229;-32
2022/05/22 07:07:09;;;;;;;1.65;1.48;;;;;;;;;;4968006;28;20243;-34
2022/05/22 07:09:36;;;;;;;2.15;1.90;;;;;;;;;;4952078;28;20430;-32
2022/05/22 07:12:07;;;;;;;1.27;1.23;;;;;;;;;;4953635;28;20206;-31
2022/05/22 07:14:34;;;;;;;2.75;1.40;;;;;;;;;;4959049;28;20213;-32
2022/05/22 07:17:02;;;;;;;2.55;1.67;;;;;;;;;;4966482;28;20224;-31
2022/05/22 07:19:29;;;;;;;2.75;1.60;;;;;;;;;;4964658;28;20261;-33
2022/05/22 07:21:58;;;;;;;2.45;1.45;;;;;;;;;;4958116;28;20206;-33
2022/05/22 07:24:25;;;;;;;1.95;1.40;;;;;;;;;;4958017;28;20211;-31
2022/05/22 07:26:52;;;;;;;1.60;1.38;;;;;;;;;;4963565;28;20229;-32
2022/05/22 07:29:19;;;;;;;2.15;1.20;;;;;;;;;;4967061;28;20209;-32
2022/05/22 07:31:46;;;;;;;2.47;1.35;;;;;;;;;;4962624;28;20218;-35
2022/05/22 07:34:14;;;;;;;1.38;1.38;;;;;;;;;;4961705;28;20213;-31
2022/05/22 07:36:41;;;;;;;1.58;1.45;;;;;;;;;;4964920;28;20712;-34
2022/05/22 07:39:09;;;;;;;1.63;1.42;;;;;;;;;;4957849;28;20298;-35
2022/05/22 07:41:37;;;;;;;3.13;1.40;;;;;;;;;;4966942;28;20202;-33
2022/05/22 07:44:04;;;;;;;2.17;1.33;;;;;;;;;;4965312;28;20243;-33
2022/05/22 07:46:31;;;;;;;1.90;1.33;;;;;;;;;;4965152;28;20531;-33
2022/05/22 07:48:58;;;;;;;3.15;1.40;;;;;;;;;;4965778;28;20306;-33
2022/05/22 07:51:26;;;;;;;4.22;1.50;;;;;;;;;;4972729;28;20264;-33
2022/05/22 07:53:53;;;;;;;2.33;1.40;;;;;;;;;;4957381;28;20236;-32
2022/05/22 07:56:22;;;;;;;2.38;1.40;;;;;;;;;;4957622;28;20234;-32
2022/05/22 07:58:50;;;;;;;1.27;1.20;;;;;;;;;;4963287;28;20295;-33
2022/05/22 08:01:18;;;;;;;3.05;1.20;;;;;;;;;;4955121;28;20208;-34
2022/05/22 08:03:45;;;;;;;1.38;1.10;;;;;;;;;;4960642;28;20213;-32
2022/05/22 08:06:12;;;;;;;3.05;1.20;;;;;;;;;;4964532;28;20237;-32
2022/05/22 08:08:40;;;;;;;1.98;1.48;;;;;;;;;;4969748;28;20298;-34
2022/05/22 08:11:07;;;;;;;4.13;1.20;;;;;;;;;;4958709;28;20738;-35
2022/05/22 08:13:35;;;;;;;2.30;1.13;;;;;;;;;;4960784;28;20222;-30
2022/05/22 08:16:04;;;;;;;2.50;1.30;;;;;;;;;;4962186;28;20219;-30
2022/05/22 08:18:31;;;;;;;1.42;1.13;;;;;;;;;;4960378;28;20211;-34
2022/05/22 08:20:58;;;;;;;3.55;1.27;;;;;;;;;;4956622;28;20204;-35
2022/05/22 08:23:26;;;;;;;1.13;1.10;;;;;;;;;;4952453;28;20210;-31
2022/05/22 08:25:53;;;;;;;2.45;0.98;;;;;;;;;;4962018;28;20317;-30
2022/05/22 08:28:21;;;;;;;2.10;1.30;;;;;;;;;;4961232;28;20218;-34
2022/05/22 08:30:52;;;;;;;0.90;0.90;;;;;;;;;;4970650;28;20261;-36
2022/05/22 08:33:19;;;;;;;4.60;1.00;;;;;;;;;;4960433;28;20247;-34
2022/05/22 08:35:46;;;;;;;2.28;0.90;;;;;;;;;;4980926;28;20280;-33
2022/05/22 08:38:13;;;;;;;2.08;1.10;;;;;;;;;;4968454;28;20677;-33
2022/05/22 08:40:46;;;;;;;1.25;1.02;;;;;;;;;;4968038;28;20219;-34
2022/05/22 08:43:15;;;;;;;2.20;0.98;;;;;;;;;;4968112;28;20209;-33
2022/05/22 08:45:43;;;;;;;1.65;0.98;;;;;;;;;;4973776;28;20227;-31
2022/05/22 08:48:15;;;;;;;2.80;0.88;;;;;;;;;;4963912;28;20221;-33
2022/05/22 08:50:43;;;;;;;3.15;0.95;;;;;;;;;;4954387;28;20670;-32
2022/05/22 08:53:11;;;;;;;1.02;0.90;;;;;;;;;;4968294;28;20628;-34
2022/05/22 09:01:15;;;;;;;1.98;1.00;;;;;;;;;;4961464;28;20279;-31
2022/05/22 09:03:49;;;;;;;1.30;0.70;;;;;;;;;;4967750;28;20207;-34
2022/05/22 09:06:22;;;;;;;0.70;0.70;;;;;;;;;;4969154;28;20249;-33
2022/05/22 09:08:50;;;;;;;0.60;0.60;;;;;;;;;;4964284;28;20269;-32
2022/05/22 09:11:19;;;;;;;2.30;0.90;;;;;;;;;;4973584;28;20214;-34
2022/05/22 09:13:51;;;;;;;2.40;1.08;;;;;;;;;;4964825;28;20720;-32
2022/05/22 09:16:23;;;;;;;2.00;0.80;;;;;;;;;;4953651;28;20222;-31
2022/05/22 09:18:56;;;;;;;2.08;1.08;;;;;;;;;;4954364;28;20221;-31
2022/05/22 09:21:30;;;;;;;0.85;0.63;;;;;;;;;;4968222;28;20208;-34
2022/05/22 09:23:59;;;;;;;1.55;0.80;;;;;;;;;;4953786;28;20212;-34
2022/05/22 09:26:32;;;;;;;1.95;0.82;;;;;;;;;;4953935;28;20235;-32
2022/05/22 09:29:02;;;;;;;2.78;0.98;;;;;;;;;;4971257;28;20207;-32
2022/05/22 09:31:35;;;;;;;0.70;0.70;;;;;;;;;;4972466;28;20209;-35
2022/05/22 09:34:11;;;;;;;0.90;0.70;;;;;;;;;;4962838;28;20209;-31
2022/05/22 09:36:44;;;;;;;1.33;0.80;;;;;;;;;;4964449;28;20223;-32
2022/05/22 09:39:17;;;;;;;2.15;0.75;;;;;;;;;;4971785;28;20248;-32
2022/05/22 09:41:55;;;;;;;0.90;0.90;;;;;;;;;;4966496;28;20216;-29
2022/05/22 09:44:35;;;;;;;0.90;0.70;;;;;;;;;;4964194;28;20353;-33
2022/05/22 09:47:20;;;;;;;1.45;0.90;;;;;;;;;;4951949;28;20313;-31
2022/05/22 09:50:01;;;;;;;1.15;0.70;;;;;;;;;;4955786;28;20205;-31
2022/05/22 09:52:33;;;;;;;0.90;0.80;;;;;;;;;;4968594;28;20196;-35
2022/05/22 09:55:16;;;;;;;0.85;0.85;;;;;;;;;;4972022;28;20215;-32
2022/05/22 09:57:57;;;;;;;0.80;0.68;;;;;;;;;;4963004;28;20295;-32
2022/05/22 10:00:25;;;;;;;1.35;0.85;;;;;;;;;;4957060;28;20211;-32
2022/05/22 10:03:00;;;;;;;1.25;0.93;;;;;;;;;;4953759;28;20224;-35
2022/05/22 10:05:34;;;;;;;1.83;0.90;;;;;;;;;;4955671;28;20224;-31
2022/05/22 10:08:04;;;;;;;1.20;0.82;;;;;;;;;;4961929;28;20206;-33
2022/05/22 10:10:34;;;;;;;0.80;0.80;;;;;;;;;;4960337;28;20675;-32
2022/05/22 10:13:06;;;;;;;1.17;0.75;;;;;;;;;;4951990;29;20228;-31
2022/05/22 10:15:40;;;;;;;0.88;0.73;;;;;;;;;;4951537;28;20423;-34
2022/05/22 10:18:19;;;;;;;1.10;0.80;;;;;;;;;;4954980;28;20214;-29
2022/05/22 10:20:53;;;;;;;1.40;0.80;;;;;;;;;;4954639;28;20220;-33
2022/05/22 10:23:28;;;;;;;1.00;0.87;;;;;;;;;;4968615;28;20263;-32
2022/05/22 10:26:00;;;;;;;1.47;0.90;;;;;;;;;;4964967;28;20234;-36
2022/05/22 10:28:30;;;;;;;1.27;0.90;;;;;;;;;;4963488;28;20204;-32
2022/05/22 10:31:00;;;;;;;2.92;0.88;;;;;;;;;;4952466;28;20284;-34
2022/05/22 10:33:30;;;;;;;1.42;0.75;;;;;;;;;;4961111;28;20317;-31
2022/05/22 10:36:03;;;;;;;5.53;0.80;;;;;;;;;;4963128;28;20239;-32
2022/05/22 10:38:32;;;;;;;1.38;0.77;;;;;;;;;;4967969;28;20571;-33
2022/05/22 10:43:47;;;;;;;2.35;0.80;;;;;;;;;;4963585;28;20210;-34
2022/05/22 10:46:14;;;;;;;1.92;0.93;;;;;;;;;;4965196;28;20238;-31
2022/05/22 10:48:51;;;;;;;0.95;0.90;;;;;;;;;;4966733;28;20219;-33
2022/05/22 10:51:25;;;;;;;2.35;0.60;;;;;;;;;;4951372;28;20213;-32
2022/05/22 10:53:53;;;;;;;1.03;0.90;;;;;;;;;;4970441;28;20210;-35
2022/05/22 10:56:21;;;;;;;1.63;0.93;;;;;;;;;;4965649;28;20830;-30
2022/05/22 10:58:52;;;;;;;1.20;0.90;;;;;;;;;;4967868;28;20573;-33
2022/05/22 11:01:20;;;;;;;1.75;1.00;;;;;;;;;;4966284;28;20209;-34
2022/05/22 11:03:48;;;;;;;0.98;0.70;;;;;;;;;;4964088;28;20220;-36
2022/05/22 11:06:17;;;;;;;0.90;0.70;;;;;;;;;;4965476;28;20229;-31
2022/05/22 11:08:49;;;;;;;2.33;0.70;;;;;;;;;;4955816;28;20201;-32
2022/05/22 11:11:18;;;;;;;2.80;0.70;;;;;;;;;;4959209;28;20200;-33
2022/05/22 11:13:46;;;;;;;1.55;0.85;;;;;;;;;;4964486;28;20303;-35
2022/05/22 11:16:14;;;;;;;0.63;0.63;;;;;;;;;;4968904;28;20225;-34
2022/05/22 11:18:41;;;;;;;0.70;0.70;;;;;;;;;;4964214;28;20223;-34
2022/05/22 11:21:13;;;;;;;1.75;0.60;;;;;;;;;;4969708;28;20205;-31
2022/05/22 11:23:47;;;;;;;1.45;0.90;;;;;;;;;;4972405;28;20299;-35
2022/05/22 11:26:22;;;;;;;0.63;0.63;;;;;;;;;;4972588;28;20228;-33
2022/05/22 11:28:56;;;;;;;2.45;0.85;;;;;;;;;;4961362;28;20260;-34
2022/05/22 11:31:30;;;;;;;1.93;1.20;;;;;;;;;;4962931;28;20226;-32
2022/05/22 11:34:04;;;;;;;0.70;0.70;;;;;;;;;;4961268;28;20287;-34
2022/05/22 11:36:39;;;;;;;0.88;0.88;;;;;;;;;;4962867;28;20222;-31
2022/05/22 11:39:16;;;;;;;1.80;0.90;;;;;;;;;;4974941;28;20204;-35
2022/05/22 11:41:49;;;;;;;3.20;0.70;;;;;;;;;;4974607;28;20289;-33
2022/05/22 11:44:36;;;;;;;2.92;0.80;;;;;;;;;;4957441;28;20228;-33
2022/05/22 11:47:18;;;;;;;1.58;0.70;;;;;;;;;;4955423;28;20247;-34
2022/05/22 11:49:51;;;;;;;1.48;0.90;;;;;;;;;;4958772;28;20215;-32
2022/05/22 11:55:22;;;;;;;1.15;0.70;;;;;;;;;;4974417;28;20203;-34
2022/05/22 11:57:58;;;;;;;1.63;1.48;;;;;;;;;;4965390;28;20351;-34
2022/05/22 12:00:28;;;;;;;6.82;1.35;;;;;;;;;;4957804;28;20201;-33
2022/05/22 12:03:07;;;;;;;0.85;0.70;;;;;;;;;;4966128;28;20206;-32
2022/05/22 12:05:42;;;;;;;1.00;0.80;;;;;;;;;;4965487;28;20769;-34
2022/05/22 12:08:14;;;;;;;0.95;0.85;;;;;;;;;;4961459;28;20203;-31
2022/05/22 12:10:47;;;;;;;1.00;0.90;;;;;;;;;;4954583;28;20228;-34
2022/05/22 12:15:45;;;;;;;0.93;0.70;;;;;;;;;;4983460;28;20232;-37
2022/05/22 12:18:26;;;;;;;1.58;0.88;;;;;;;;;;4986386;28;20208;-39
2022/05/22 12:20:56;;;;;;;1.38;0.82;;;;;;;;;;4987192;28;20210;-39
2022/05/22 12:23:26;;;;;;;1.45;0.90;;;;;;;;;;4980802;28;20211;-38
2022/05/22 12:25:55;;;;;;;0.77;0.75;;;;;;;;;;4974147;28;20232;-35
2022/05/22 12:28:34;;;;;;;1.45;1.00;;;;;;;;;;4982408;28;20231;-31
2022/05/22 12:31:07;;;;;;;1.38;0.80;;;;;;;;;;4976232;28;20201;-42
2022/05/22 12:33:36;;;;;;;0.65;0.65;;;;;;;;;;4980802;28;20312;-40
2022/05/22 12:36:05;;;;;;;0.50;0.50;;;;;;;;;;4982539;28;20310;-40
2022/05/22 12:38:32;;;;;;;2.25;0.95;;;;;;;;;;4989849;28;20235;-34
2022/05/22 12:41:05;;;;;;;1.35;1.00;;;;;;;;;;4988089;28;20208;-33
2022/05/22 12:43:33;;;;;;;0.98;0.90;;;;;;;;;;4975470;28;20671;-36
2022/05/22 12:46:02;;;;;;;3.03;0.70;;;;;;;;;;4983368;28;20228;-37
2022/05/22 12:48:38;;;;;;;1.65;1.00;;;;;;;;;;4985632;28;20287;-35
2022/05/22 12:51:13;;;;;;;1.27;0.70;;;;;;;;;;4980674;28;20275;-32
2022/05/22 12:53:41;;;;;;;1.25;0.82;;;;;;;;;;4977476;28;20245;-37
2022/05/22 12:56:18;;;;;;;1.55;0.82;;;;;;;;;;4973515;28;20233;-34
2022/05/22 12:58:47;;;;;;;0.85;0.80;;;;;;;;;;4988937;28;20204;-36
2022/05/22 13:01:24;;;;;;;0.80;0.80;;;;;;;;;;4989090;28;20267;-38
2022/05/22 13:03:55;;;;;;;2.58;0.90;;;;;;;;;;4986024;28;20208;-34
2022/05/22 13:06:23;;;;;;;1.02;0.80;;;;;;;;;;4995165;28;20240;-37
2022/05/22 13:08:59;;;;;;;1.05;0.70;;;;;;;;;;4977013;28;20644;-33
2022/05/22 13:13:55;;;;;;;1.50;1.02;;;;;;;;;;4979601;28;20253;-37
2022/05/22 13:21:35;;;;;;;2.28;0.90;;;;;;;;;;4982413;28;20220;-30
2022/05/22 13:24:03;;;;;;;1.48;0.82;;;;;;;;;;4993831;28;20243;-36
2022/05/22 13:26:32;;;;;;;1.77;0.70;;;;;;;;;;4984236;28;20665;-37
2022/05/22 13:29:02;;;;;;;1.08;0.80;;;;;;;;;;4992159;28;20263;-38
2022/05/22 13:31:32;;;;;;;1.92;1.00;;;;;;;;;;4993746;28;20239;-42
2022/05/22 13:34:07;;;;;;;1.20;0.90;;;;;;;;;;4984081;28;20282;-34
2022/05/22 13:36:42;;;;;;;1.10;0.75;;;;;;;;;;4985780;28;20260;-37
2022/05/22 13:39:15;;;;;;;1.27;0.90;;;;;;;;;;4994139;28;20210;-36
2022/05/22 13:42:01;;;;;;;1.83;0.80;;;;;;;;;;4991320;28;20205;-39
2022/05/22 13:44:56;;;;;;;2.88;0.75;;;;;;;;;;4973748;28;20210;-35
2022/05/22 13:47:36;;;;;;;0.63;0.63;;;;;;;;;;4971944;28;20229;-33
2022/05/22 13:53:13;;;;;;;1.92;0.90;;;;;;;;;;4984276;28;20224;-38
2022/05/22 13:55:42;;;;;;;6.03;0.90;;;;;;;;;;4992685;28;20225;-42
2022/05/22 13:58:13;;;;;;;0.80;0.75;;;;;;;;;;4984756;28;20232;-39
2022/05/22 14:00:41;;;;;;;1.65;0.98;;;;;;;;;;4979184;28;20210;-43
2022/05/22 14:03:10;;;;;;;2.83;0.98;;;;;;;;;;4987415;28;20205;-43
2022/05/22 14:05:38;;;;;;;2.35;1.00;;;;;;;;;;4977920;28;20229;-39
2022/05/22 14:08:10;;;;;;;1.50;0.90;;;;;;;;;;4992916;28;20260;-35
2022/05/22 14:10:38;;;;;;;2.88;1.08;;;;;;;;;;4994108;28;20206;-41
2022/05/22 14:13:14;;;;;;;2.58;1.00;;;;;;;;;;4985007;28;20288;-38
2022/05/22 14:15:49;;;;;;;1.08;1.00;;;;;;;;;;4979625;28;20283;-38
2022/05/22 14:18:18;;;;;;;1.00;1.00;;;;;;;;;;4983537;28;20284;-40
2022/05/22 14:20:46;;;;;;;1.10;1.00;;;;;;;;;;4984419;28;20213;-35
2022/05/22 14:23:18;;;;;;;2.08;0.93;;;;;;;;;;4973327;28;20198;-35
2022/05/22 14:25:46;;;;;;;1.05;1.00;;;;;;;;;;4971741;28;20304;-38
2022/05/22 14:28:13;;;;;;;0.95;0.68;;;;;;;;;;4981755;28;20228;-37
2022/05/22 14:30:42;;;;;;;0.95;0.95;;;;;;;;;;4991429;28;20217;-35
2022/05/22 14:33:12;;;;;;;0.70;0.70;;;;;;;;;;4985794;28;20201;-38
2022/05/22 14:35:41;;;;;;;1.10;0.70;;;;;;;;;;4977683;28;20229;-36
2022/05/22 14:38:12;;;;;;;1.20;1.10;;;;;;;;;;4991492;28;20237;-32
2022/05/22 14:40:46;;;;;;;2.70;1.00;;;;;;;;;;4986977;28;20239;-37
2022/05/22 14:43:13;;;;;;;2.47;0.80;;;;;;;;;;4971750;28;20207;-37
2022/05/22 14:45:43;;;;;;;1.48;1.02;;;;;;;;;;4989013;28;20237;-38
2022/05/22 14:48:12;;;;;;;3.33;0.68;;;;;;;;;;4982349;28;20281;-40
2022/05/22 14:50:44;;;;;;;0.75;0.75;;;;;;;;;;4984652;28;20206;-43
2022/05/22 14:53:13;;;;;;;0.90;0.90;;;;;;;;;;4991485;28;20214;-35
2022/05/22 14:55:42;;;;;;;0.70;0.70;;;;;;;;;;4990381;28;20234;-35
2022/05/22 14:58:15;;;;;;;2.15;1.10;;;;;;;;;;4986850;28;20296;-36
2022/05/22 15:00:52;;;;;;;1.00;0.90;;;;;;;;;;4982781;28;20229;-38
2022/05/22 15:03:21;;;;;;;3.30;1.75;;;;;;;;;;4977106;28;20215;-39
2022/05/22 15:05:52;;;;;;;2.70;2.10;;;;;;;;;;4977973;28;20233;-40
2022/05/22 15:08:23;;;;;;;2.20;2.00;;;;;;;;;;4977304;28;20225;-34
2022/05/22 15:10:51;;;;;;;2.17;1.08;;;;;;;;;;4972918;28;20235;-38
2022/05/22 15:13:24;;;;;;;1.20;1.10;;;;;;;;;;4982123;28;20206;-36
2022/05/22 15:15:51;;;;;;;1.42;1.02;;;;;;;;;;4971700;28;20228;-33
2022/05/22 15:18:22;;;;;;;1.02;0.90;;;;;;;;;;4969320;28;20201;-36
2022/05/22 15:20:59;;;;;;;0.90;0.90;;;;;;;;;;4972730;28;20213;-36
2022/05/22 15:26:17;;;;;;;0.75;0.75;;;;;;;;;;4987894;28;20264;-35
2022/05/22 15:28:45;;;;;;;2.35;0.90;;;;;;;;;;4976510;28;20232;-35
2022/05/22 15:31:14;;;;;;;1.70;1.10;;;;;;;;;;4984395;28;20204;-34
2022/05/22 15:33:45;;;;;;;1.77;1.25;;;;;;;;;;4978744;28;20204;-34